Terminal Aerodrome Forecast
Issued by NWS

Home | Current Version | Previous Version | Text Only | Print | Product List | Glossary On
Versions: 1 2 3 4 5 6 7 8 9 10 11 12
409
FTUS42 KTAE 172320
TAFECP
TAF
KECP 172320Z 1800/1824 VRB03KT P6SM FEW250
     FM181400 15006KT P6SM SKC
     FM181900 18010G20KT P6SM BKN035=

USA.gov is the U.S. government's official web portal to all federal, state and local government web resources and services.